Time;durP1;ratioP1;P1;durP2;ratioP2;P2;SDS_P1;SDS_P2;PMS_P1;PMS_P2;Temp;Humidity;BMP_temperature;BMP_pressure;BME280_temperature;BME280_humidity;BME280_pressure;Samples;Min_cycle;Max_cycle;Signal;HPM_P1;HPM_P2
2023/08/15 00:02:00;;;;;;;;;20.60;19.00;;;;;25.47;100.00;99086.66;6280755;27;96608;-66
2023/08/15 00:05:04;;;;;;;;;18.25;18.00;;;;;25.42;100.00;99090.38;6288956;27;96329;-66
2023/08/15 00:08:27;;;;;;;;;19.40;18.00;;;;;25.41;100.00;99094.25;6284217;27;96309;-66
2023/08/15 00:11:30;;;;;;;;;20.50;19.00;;;;;25.33;100.00;99094.22;6253417;27;96929;-66
2023/08/15 00:14:35;;;;;;;;;19.00;18.60;;;;;25.34;100.00;99091.16;6228653;27;99138;-66
2023/08/15 00:17:38;;;;;;;;;21.00;19.00;;;;;25.20;100.00;99087.63;6286382;27;96552;-66
2023/08/15 00:20:41;;;;;;;;;18.40;18.40;;;;;25.06;100.00;99091.56;6286795;27;96938;-66
2023/08/15 00:23:45;;;;;;;;;19.20;18.00;;;;;25.02;100.00;99096.91;6287558;27;96482;-66
2023/08/15 00:26:48;;;;;;;;;20.00;18.80;;;;;24.97;100.00;99091.50;6270412;27;97017;-66
2023/08/15 00:29:52;;;;;;;;;20.50;19.00;;;;;25.03;100.00;99092.97;6263338;27;96622;-66
2023/08/15 00:32:55;;;;;;;;;20.75;19.75;;;;;25.01;100.00;99093.31;6288628;27;96464;-66
2023/08/15 00:35:58;;;;;;;;;18.00;17.20;;;;;24.96;100.00;99100.88;6249798;27;98361;-66
2023/08/15 00:39:02;;;;;;;;;19.25;19.00;;;;;24.86;100.00;99099.16;6251191;27;96739;-66
2023/08/15 00:42:06;;;;;;;;;20.00;19.00;;;;;24.78;100.00;99093.53;6269820;27;96488;-66
2023/08/15 00:45:11;;;;;;;;;18.80;18.80;;;;;24.75;100.00;99097.72;6268193;27;97649;-66
2023/08/15 00:48:16;;;;;;;;;20.00;19.00;;;;;24.78;100.00;99093.53;6286733;27;96858;-66
2023/08/15 00:51:20;;;;;;;;;20.00;18.00;;;;;24.79;100.00;99092.41;6286276;27;96366;-66
2023/08/15 00:54:23;;;;;;;;;21.80;20.80;;;;;24.79;100.00;99092.41;6285692;27;96588;-66
2023/08/15 00:57:27;;;;;;;;;20.00;19.60;;;;;24.73;100.00;99088.94;6268012;27;96434;-66
2023/08/15 01:00:31;;;;;;;;;22.60;20.60;;;;;24.72;100.00;99087.34;6285238;27;96388;-66
2023/08/15 01:03:36;;;;;;;;;19.00;18.00;;;;;24.72;100.00;99084.56;6253050;27;97090;-66
2023/08/15 01:06:39;;;;;;;;;19.75;18.00;;;;;24.69;100.00;99079.66;6243286;27;98874;-66
2023/08/15 01:09:42;;;;;;;;;19.50;18.00;;;;;24.71;100.00;99077.44;6278358;27;96572;-66
2023/08/15 01:12:54;;;;;;;;;19.60;19.00;;;;;24.73;100.00;99074.38;6262871;27;96392;-66
2023/08/15 01:16:01;;;;;;;;;19.60;19.00;;;;;24.76;100.00;99071.81;6272270;27;97060;-66
2023/08/15 01:19:11;;;;;;;;;18.60;17.60;;;;;24.82;100.00;99075.25;6281621;27;96355;-66
2023/08/15 01:22:17;;;;;;;;;18.60;18.00;;;;;24.84;100.00;99070.22;6272714;27;96241;-66
2023/08/15 01:25:22;;;;;;;;;21.00;18.00;;;;;24.82;100.00;99081.59;6289908;27;96414;-66
2023/08/15 01:28:25;;;;;;;;;22.60;21.00;;;;;24.79;100.00;99076.69;6290349;27;96897;-66
2023/08/15 01:31:35;;;;;;;;;21.60;18.00;;;;;24.75;100.00;99083.13;6272355;27;98720;-66
2023/08/15 01:34:47;;;;;;;;;20.60;19.00;;;;;24.71;100.00;99082.13;6247310;27;96688;-66
2023/08/15 01:37:59;;;;;;;;;21.00;19.00;;;;;24.73;100.00;99077.91;6281613;27;96586;-66
2023/08/15 01:41:06;;;;;;;;;22.00;20.00;;;;;24.75;100.00;99074.84;6240095;27;98531;-66
2023/08/15 01:44:12;;;;;;;;;20.75;18.75;;;;;24.77;100.00;99075.38;6266467;27;96297;-66
2023/08/15 01:47:15;;;;;;;;;19.60;18.60;;;;;24.67;100.00;99075.59;6260626;27;96878;-66
2023/08/15 01:50:18;;;;;;;;;21.80;20.00;;;;;24.59;100.00;99077.13;6266725;27;96547;-67
2023/08/15 01:53:23;;;;;;;;;19.50;19.00;;;;;24.48;100.00;99072.97;6263373;27;96997;-66
2023/08/15 01:56:28;;;;;;;;;21.00;19.40;;;;;24.43;100.00;99081.34;6253131;27;98528;-66
2023/08/15 01:59:31;;;;;;;;;20.00;18.00;;;;;24.33;100.00;99087.91;6253643;27;97147;-66
2023/08/15 02:02:34;;;;;;;;;20.00;17.50;;;;;24.25;100.00;99080.31;6282394;27;97082;-66
2023/08/15 02:05:37;;;;;;;;;17.00;15.25;;;;;24.15;100.00;99084.06;6284906;27;97757;-66
2023/08/15 02:08:41;;;;;;;;;18.00;16.00;;;;;24.12;100.00;99087.44;6262466;27;96342;-66
2023/08/15 02:11:45;;;;;;;;;19.20;17.20;;;;;24.07;100.00;99084.78;6252989;27;98593;-66
2023/08/15 02:14:48;;;;;;;;;18.60;16.40;;;;;24.03;100.00;99086.53;6268676;27;96740;-66
2023/08/15 02:17:51;;;;;;;;;18.60;17.60;;;;;24.01;100.00;99085.19;6288875;27;96956;-66
2023/08/15 02:20:55;;;;;;;;;17.00;16.20;;;;;23.97;100.00;99078.66;6288022;27;96338;-66
2023/08/15 02:23:58;;;;;;;;;18.20;17.00;;;;;23.99;100.00;99085.50;6274442;27;96892;-66
2023/08/15 02:27:03;;;;;;;;;18.60;17.00;;;;;24.05;100.00;99081.50;6270288;27;96384;-66
2023/08/15 02:30:08;;;;;;;;;21.00;18.00;;;;;24.12;100.00;99075.59;6282443;27;96383;-66
2023/08/15 02:33:12;;;;;;;;;18.40;17.00;;;;;24.19;100.00;99081.53;6248943;27;96721;-66
2023/08/15 02:36:15;;;;;;;;;19.00;17.40;;;;;24.26;100.00;99089.41;6266994;27;96350;-66
2023/08/15 02:39:19;;;;;;;;;19.00;18.00;;;;;24.27;100.00;99091.06;6263451;27;97874;-66
2023/08/15 02:42:23;;;;;;;;;17.00;16.00;;;;;24.28;100.00;99092.69;6266651;27;96351;-66
2023/08/15 02:45:26;;;;;;;;;15.50;14.00;;;;;24.24;100.00;99083.41;6253508;27;96820;-66
2023/08/15 02:48:30;;;;;;;;;20.00;19.00;;;;;24.18;100.00;99090.97;6288012;27;96366;-66
2023/08/15 02:51:33;;;;;;;;;17.00;16.60;;;;;24.13;100.00;99088.28;6248905;27;98459;-66
2023/08/15 02:54:36;;;;;;;;;17.00;15.00;;;;;24.11;100.00;99093.25;6271831;27;96374;-66
2023/08/15 02:57:40;;;;;;;;;17.20;17.00;;;;;24.08;100.00;99093.88;6270145;27;97150;-66
2023/08/15 03:00:43;;;;;;;;;20.00;19.00;;;;;24.04;100.00;99101.91;6283506;27;96366;-66
2023/08/15 03:03:47;;;;;;;;;16.40;15.00;;;;;24.03;100.00;99105.81;6266609;27;96720;-66
2023/08/15 03:06:50;;;;;;;;;19.50;18.00;;;;;24.01;100.00;99105.28;6269998;27;96924;-66
2023/08/15 03:09:53;;;;;;;;;18.80;18.00;;;;;24.01;100.00;99102.53;6270038;27;97029;-66
2023/08/15 03:12:58;;;;;;;;;19.50;17.75;;;;;23.98;100.00;99105.91;6257228;27;96988;-66
2023/08/15 03:16:01;;;;;;;;;17.20;16.60;;;;;23.96;100.00;99113.63;6269399;27;97831;-66
2023/08/15 03:19:06;;;;;;;;;16.20;15.80;;;;;23.94;100.00;99115.91;6289210;27;96516;-66
2023/08/15 03:22:10;;;;;;;;;18.00;18.00;;;;;23.92;100.00;99118.13;6270430;27;96314;-66
2023/08/15 03:25:13;;;;;;;;;18.80;18.00;;;;;23.93;100.00;99111.50;6248549;27;96864;-66
2023/08/15 03:28:17;;;;;;;;;19.00;18.00;;;;;23.94;100.00;99115.91;6269120;27;96450;-66
2023/08/15 03:31:21;;;;;;;;;17.20;16.00;;;;;23.91;100.00;99108.22;6260902;27;97698;-66
2023/08/15 03:34:30;;;;;;;;;18.00;17.40;;;;;23.88;100.00;99110.78;6247649;27;98864;-66
2023/08/15 03:37:35;;;;;;;;;17.20;16.00;;;;;23.83;100.00;99097.09;6288534;27;96567;-66
2023/08/15 03:40:38;;;;;;;;;17.00;16.50;;;;;23.80;100.00;99098.50;6281644;27;96527;-66
2023/08/15 03:43:43;;;;;;;;;17.00;17.00;;;;;23.79;100.00;99105.16;6284787;27;96494;-66
2023/08/15 03:46:47;;;;;;;;;18.40;17.40;;;;;23.80;100.00;99106.78;6289284;27;96328;-66
2023/08/15 03:49:51;;;;;;;;;18.00;15.50;;;;;23.83;100.00;99111.69;6260007;27;96576;-66
2023/08/15 03:52:54;;;;;;;;;16.50;15.50;;;;;23.86;100.00;99116.56;6262520;27;96458;-66
2023/08/15 03:55:57;;;;;;;;;14.60;14.00;;;;;23.90;100.00;99117.59;6271619;27;96709;-66
2023/08/15 03:59:02;;;;;;;;;14.00;13.40;;;;;23.94;100.00;99107.63;6273052;27;96421;-67
2023/08/15 04:02:06;;;;;;;;;18.00;15.00;;;;;24.02;100.00;99117.13;6266791;27;96879;-66
2023/08/15 04:05:11;;;;;;;;;14.40;14.40;;;;;24.07;100.00;99120.59;6261407;27;96379;-66
2023/08/15 04:08:16;;;;;;;;;16.40;15.00;;;;;24.06;100.00;99118.13;6261217;27;96997;-66
2023/08/15 04:11:20;;;;;;;;;14.00;14.00;;;;;24.01;100.00;99118.22;6275034;27;96542;-66
2023/08/15 04:14:24;;;;;;;;;17.75;16.00;;;;;23.99;100.00;99118.56;6284304;27;96499;-66
2023/08/15 04:17:28;;;;;;;;;16.75;16.00;;;;;24.01;100.00;99119.06;6263973;27;96399;-66
2023/08/15 04:20:32;;;;;;;;;15.00;15.00;;;;;24.00;100.00;99119.34;6269873;27;96677;-66
2023/08/15 04:23:35;;;;;;;;;16.25;15.25;;;;;24.04;100.00;99120.41;6275294;27;96548;-66
2023/08/15 04:26:38;;;;;;;;;17.00;15.67;;;;;24.05;100.00;99119.25;6285217;27;96472;-67
2023/08/15 04:29:43;;;;;;;;;17.80;16.00;;;;;23.96;100.00;99110.88;6271192;27;96429;-66
2023/08/15 04:32:47;;;;;;;;;15.00;15.00;;;;;24.05;100.00;99124.75;6264674;27;97080;-66
2023/08/15 04:35:50;;;;;;;;;15.00;14.75;;;;;24.12;100.00;99120.50;6239723;27;98529;-66
2023/08/15 04:38:53;;;;;;;;;15.00;14.00;;;;;24.23;100.00;99120.34;6267163;27;96304;-66
2023/08/15 04:41:56;;;;;;;;;18.60;17.60;;;;;24.40;100.00;99126.03;6269964;27;99193;-66
2023/08/15 04:45:01;;;;;;;;;19.50;18.00;;;;;24.55;100.00;99128.50;6267435;27;96301;-66
2023/08/15 04:48:07;;;;;;;;;16.00;16.00;;;;;24.74;100.00;99129.19;6269717;27;96583;-66
2023/08/15 04:51:11;;;;;;;;;17.00;16.00;;;;;24.85;100.00;99127.84;6291594;27;96430;-67
2023/08/15 04:54:14;;;;;;;;;15.20;14.20;;;;;24.97;100.00;99133.66;6256335;27;98587;-67
2023/08/15 04:57:17;;;;;;;;;17.25;17.00;;;;;25.02;100.00;99136.31;6276804;27;96535;-66
2023/08/15 05:00:23;;;;;;;;;17.00;15.00;;;;;25.18;100.00;99145.06;6275830;27;99258;-67
2023/08/15 05:03:26;;;;;;;;;15.20;15.00;;;;;25.36;100.00;99148.78;6294339;27;96458;-66
2023/08/15 05:06:29;;;;;;;;;20.00;19.00;;;;;25.42;100.00;99137.31;6276179;27;98348;-66
2023/08/15 05:09:33;;;;;;;;;17.00;16.00;;;;;25.62;100.00;99151.75;6276853;27;96629;-66
2023/08/15 05:12:36;;;;;;;;;20.40;18.00;;;;;25.81;100.00;99149.63;6276091;27;96818;-67
2023/08/15 05:15:40;;;;;;;;;18.75;17.50;;;;;25.84;100.00;99152.59;6294057;27;96570;-67
2023/08/15 05:18:43;;;;;;;;;19.50;18.00;;;;;25.87;100.00;99151.94;6276287;27;97341;-67
2023/08/15 05:21:47;;;;;;;;;19.60;18.00;;;;;25.93;100.00;99144.34;6293056;27;96352;-66
2023/08/15 05:24:50;;;;;;;;;16.50;16.50;;;;;26.09;100.00;99156.63;6294655;27;96297;-67
2023/08/15 05:27:53;;;;;;;;;16.80;15.80;;;;;26.17;100.00;99150.31;6276691;27;96335;-66
2023/08/15 05:30:58;;;;;;;;;17.20;15.20;;;;;26.29;100.00;99156.09;6275856;27;96707;-66
2023/08/15 05:34:01;;;;;;;;;17.00;16.00;;;;;26.40;100.00;99156.63;6258580;27;98509;-66
2023/08/15 05:37:04;;;;;;;;;16.75;15.25;;;;;26.48;100.00;99157.81;6277212;27;96348;-66
2023/08/15 05:40:09;;;;;;;;;16.00;14.00;;;;;26.55;100.00;99164.50;6267626;27;96582;-66
2023/08/15 05:43:12;;;;;;;;;16.00;15.00;;;;;26.72;100.00;99161.81;6260674;27;96969;-66
2023/08/15 05:46:16;;;;;;;;;16.00;15.00;;;;;26.76;100.00;99158.38;6296581;27;96882;-66
2023/08/15 05:49:20;;;;;;;;;14.00;13.40;;;;;26.91;100.00;99172.63;6296114;27;96508;-66
2023/08/15 05:52:23;;;;;;;;;13.25;13.25;;;;;26.98;100.00;99158.28;6290263;27;96207;-66
2023/08/15 05:55:26;;;;;;;;;14.60;13.60;;;;;27.17;100.00;99169.09;6284332;27;96859;-66
2023/08/15 05:58:29;;;;;;;;;14.75;14.00;;;;;27.36;100.00;99166.81;6272353;27;96954;-66
2023/08/15 06:01:34;;;;;;;;;15.00;13.33;;;;;27.60;100.00;99163.59;6295799;27;96412;-66
2023/08/15 06:04:37;;;;;;;;;16.75;14.75;;;;;27.83;100.00;99165.81;6272908;27;96661;-67
2023/08/15 06:07:41;;;;;;;;;15.00;14.40;;;;;28.07;100.00;99170.00;6277266;27;96798;-66
2023/08/15 06:10:45;;;;;;;;;15.00;13.00;;;;;28.31;100.00;99165.56;6296483;27;96340;-67
2023/08/15 06:13:48;;;;;;;;;14.00;13.00;;;;;28.56;100.00;99163.00;6277916;27;98637;-67
2023/08/15 06:16:52;;;;;;;;;12.60;12.60;;;;;28.78;100.00;99166.34;6256607;27;98599;-66
2023/08/15 06:19:55;;;;;;;;;15.00;12.00;;;;;28.99;100.00;99163.63;6279148;27;96864;-66
2023/08/15 06:22:59;;;;;;;;;13.00;12.00;;;;;29.07;100.00;99164.72;6298381;27;96338;-67
2023/08/15 06:26:03;;;;;;;;;12.40;12.40;;;;;29.03;100.00;99147.91;6296159;27;96512;-66
2023/08/15 06:29:07;;;;;;;;;13.00;13.00;;;;;29.16;100.00;99168.25;6295286;27;96421;-66
2023/08/15 06:32:26;;;;;;;;;15.60;14.60;;;;;29.43;100.00;99166.91;6291716;27;96731;-66
2023/08/15 06:35:30;;;;;;;;;15.00;13.00;;;;;29.65;100.00;99169.34;6275789;27;97100;-66
2023/08/15 06:38:33;;;;;;;;;15.00;13.20;;;;;29.90;100.00;99173.88;6299146;27;97041;-66
2023/08/15 06:41:36;;;;;;;;;14.00;14.00;;;;;30.03;100.00;99158.84;6263731;27;96730;-67
2023/08/15 06:44:42;;;;;;;;;12.60;11.60;;;;;30.27;100.00;99169.22;6276708;27;96344;-67
2023/08/15 06:47:46;;;;;;;;;15.00;14.00;;;;;30.34;100.00;99157.53;6279605;27;96392;-67
2023/08/15 06:50:49;;;;;;;;;15.00;14.50;;;;;30.46;100.00;99171.47;6277836;27;96465;-67
2023/08/15 06:53:54;;;;;;;;;14.00;14.00;;;;;30.62;100.00;99166.03;6293744;27;96273;-67
2023/08/15 06:56:57;;;;;;;;;15.80;14.80;;;;;30.79;100.00;99174.97;6271955;27;99097;-67
2023/08/15 07:00:00;;;;;;;;;13.00;12.75;;;;;31.05;100.00;99169.06;6264116;27;96292;-67
2023/08/15 07:03:05;;;;;;;;;12.00;11.00;;;;;31.27;100.00;99176.13;6276290;27;97093;-67
2023/08/15 07:06:09;;;;;;;;;14.00;13.00;;;;;31.50;100.00;99170.81;6289305;27;96311;-67
2023/08/15 07:09:12;;;;;;;;;13.00;11.00;;;;;31.72;100.00;99178.66;6294585;27;96912;-67
2023/08/15 07:12:17;;;;;;;;;10.00;9.00;;;;;31.99;100.00;99183.44;6291094;27;96354;-67
2023/08/15 07:15:21;;;;;;;;;10.20;9.80;;;;;32.08;100.00;99186.03;6292749;27;96378;-67
2023/08/15 07:18:26;;;;;;;;;13.25;12.00;;;;;32.27;100.00;99183.41;6288394;27;96511;-67
2023/08/15 07:21:29;;;;;;;;;11.25;11.00;;;;;32.47;100.00;99187.94;6262537;27;98463;-67
2023/08/15 07:24:32;;;;;;;;;9.00;8.75;;;;;32.80;100.00;99176.41;6288020;27;96453;-67
2023/08/15 07:27:36;;;;;;;;;9.80;8.20;;;;;33.07;100.00;99183.03;6278018;27;96520;-66
2023/08/15 07:30:39;;;;;;;;;9.40;9.40;;;;;33.32;100.00;99189.22;6290437;27;96101;-66
2023/08/15 07:33:44;;;;;;;;;9.00;8.60;;;;;33.50;100.00;99188.44;6271590;27;96949;-66
2023/08/15 07:36:47;;;;;;;;;10.00;9.00;;;;;33.72;100.00;99186.13;6289512;27;96978;-66
2023/08/15 07:39:57;;;;;;;;;12.00;10.00;;;;;34.05;100.00;99189.19;6271229;27;98588;-66
2023/08/15 07:43:00;;;;;;;;;11.00;10.00;;;;;34.26;100.00;99183.19;6265615;27;96619;-66
2023/08/15 07:46:03;;;;;;;;;11.00;10.00;;;;;34.50;100.00;99194.06;6270713;27;96697;-66
2023/08/15 07:49:08;;;;;;;;;8.60;8.60;;;;;34.60;100.00;99193.41;6265091;27;96417;-66
2023/08/15 07:52:11;;;;;;;;;9.00;8.00;;;;;34.51;100.00;99187.25;6282525;27;96389;-66
2023/08/15 07:55:15;;;;;;;;;8.00;8.00;;;;;34.68;100.00;99180.38;6260418;27;98557;-67
2023/08/15 07:58:19;;;;;;;;;12.60;12.40;;;;;35.00;100.00;99189.28;6280574;27;96601;-66
2023/08/15 08:01:22;;;;;;;;;10.00;10.00;;;;;35.34;100.00;99187.41;6289686;27;96789;-66
2023/08/15 08:04:26;;;;;;;;;9.00;8.60;;;;;35.54;100.00;99181.28;6272299;27;97087;-66
2023/08/15 08:07:31;;;;;;;;;10.00;10.00;;;;;35.52;100.00;99180.06;6300791;27;96529;-66
2023/08/15 08:10:34;;;;;;;;;8.60;8.60;;;;;35.41;100.00;99179.91;6274306;27;96367;-67
2023/08/15 08:13:37;;;;;;;;;10.80;10.00;;;;;35.30;100.00;99175.34;6292141;27;96904;-66
2023/08/15 08:16:41;;;;;;;;;11.00;10.00;;;;;35.38;100.00;99177.06;6273305;27;96411;-66
2023/08/15 08:19:45;;;;;;;;;11.00;10.00;;;;;35.50;100.00;99176.81;6239736;27;97240;-66
2023/08/15 08:22:48;;;;;;;;;9.80;9.00;;;;;35.75;100.00;99168.75;6273464;27;96754;-66
2023/08/15 08:25:51;;;;;;;;;10.60;10.40;;;;;35.94;100.00;99175.00;6273530;27;96508;-66
2023/08/15 08:28:55;;;;;;;;;8.60;8.00;;;;;36.07;100.00;99181.13;6246390;27;99137;-66
2023/08/15 08:31:58;;;;;;;;;9.00;8.60;;;;;36.30;100.00;99184.63;6263893;27;96325;-66
2023/08/15 08:35:02;;;;;;;;;7.00;7.00;;;;;36.22;96.84;99171.69;6272665;27;96910;-66
2023/08/15 08:38:05;;;;;;;;;8.00;8.00;;;;;36.45;100.00;99177.97;6272480;27;96445;-66
2023/08/15 08:41:09;;;;;;;;;10.00;10.00;;;;;36.48;98.42;99174.38;6282960;27;96490;-66
2023/08/15 08:44:13;;;;;;;;;8.75;7.75;;;;;36.66;97.93;99180.16;6275014;27;96939;-66
2023/08/15 08:47:20;;;;;;;;;10.00;9.00;;;;;36.84;93.63;99169.06;6246126;27;97205;-66
2023/08/15 08:50:27;;;;;;;;;8.00;8.00;;;;;36.99;95.88;99170.00;6269874;27;99006;-66
2023/08/15 08:53:30;;;;;;;;;10.40;10.00;;;;;37.14;88.15;99164.06;6272684;27;96641;-66
2023/08/15 08:56:34;;;;;;;;;7.00;7.00;;;;;37.09;91.65;99166.47;6291153;27;97238;-66
2023/08/15 08:59:40;;;;;;;;;8.40;7.00;;;;;37.14;83.29;99160.47;6286305;27;96512;-66
2023/08/15 09:02:44;;;;;;;;;8.80;8.80;;;;;37.24;85.83;99159.75;6279606;27;96830;-66
2023/08/15 09:05:49;;;;;;;;;9.40;9.00;;;;;37.14;86.39;99171.72;6293240;27;96333;-66
2023/08/15 09:08:52;;;;;;;;;7.00;6.60;;;;;37.42;87.18;99160.63;6289232;27;96372;-66
2023/08/15 09:11:56;;;;;;;;;10.00;9.00;;;;;37.56;85.90;99160.72;6254478;27;96769;-66
2023/08/15 09:15:00;;;;;;;;;10.00;9.00;;;;;37.16;83.02;99156.06;6273948;27;97067;-66
2023/08/15 09:18:06;;;;;;;;;8.25;8.25;;;;;37.08;87.03;99134.75;6283599;27;96000;-66
2023/08/15 09:21:13;;;;;;;;;9.40;9.40;;;;;37.56;92.55;99155.09;6268494;27;96572;-66
2023/08/15 09:24:16;;;;;;;;;11.00;11.00;;;;;37.53;85.72;99147.47;6292508;27;96258;-66
2023/08/15 09:27:20;;;;;;;;;9.00;9.00;;;;;37.48;80.76;99149.81;6268595;27;96761;-66
2023/08/15 09:30:23;;;;;;;;;10.00;9.75;;;;;37.58;86.13;99141.44;6268556;27;96483;-66
2023/08/15 09:33:27;;;;;;;;;11.25;10.75;;;;;37.94;85.85;99147.16;6271264;27;98508;-66
2023/08/15 09:36:32;;;;;;;;;13.00;12.00;;;;;37.85;82.26;99143.94;6273270;27;96507;-65
2023/08/15 09:39:35;;;;;;;;;11.00;10.80;;;;;37.78;84.87;99146.75;6269783;27;96592;-67
2023/08/15 09:42:38;;;;;;;;;10.80;10.00;;;;;37.85;84.78;99138.31;6281602;27;96455;-66
2023/08/15 09:45:42;;;;;;;;;11.60;11.00;;;;;38.08;86.00;99145.22;6277009;27;96541;-66
2023/08/15 09:48:47;;;;;;;;;12.00;11.40;;;;;37.81;82.88;99140.31;6297974;27;96855;-66
2023/08/15 09:51:51;;;;;;;;;11.00;11.00;;;;;38.24;88.51;99135.59;6281516;27;96259;-66
2023/08/15 09:54:55;;;;;;;;;11.00;10.00;;;;;38.63;84.79;99135.63;6264616;27;96476;-66
2023/08/15 09:57:59;;;;;;;;;11.80;11.80;;;;;39.00;85.78;99136.81;6274191;27;96793;-66
2023/08/15 10:01:05;;;;;;;;;14.00;13.50;;;;;38.84;83.13;99115.91;6294345;27;97618;-66
2023/08/15 10:04:11;;;;;;;;;14.00;14.00;;;;;38.94;80.95;99130.00;6295441;27;96334;-66
2023/08/15 10:07:16;;;;;;;;;13.25;13.00;;;;;39.15;81.58;99117.03;6273062;27;97250;-66
2023/08/15 10:10:20;;;;;;;;;14.00;14.00;;;;;39.39;84.35;99113.41;6294047;27;96464;-66
2023/08/15 10:13:28;;;;;;;;;13.00;13.00;;;;;38.87;80.87;99115.88;6276720;27;97253;-66
2023/08/15 10:16:32;;;;;;;;;14.00;14.00;;;;;38.91;83.01;99107.44;6296373;27;96674;-66
2023/08/15 10:19:35;;;;;;;;;14.60;13.60;;;;;38.84;85.19;99116.72;6278682;27;96617;-66
2023/08/15 10:22:40;;;;;;;;;14.00;14.00;;;;;38.93;85.69;99102.22;6296134;27;96701;-66
2023/08/15 10:25:43;;;;;;;;;12.00;11.00;;;;;39.25;85.78;99099.28;6266199;27;98639;-66
2023/08/15 10:28:47;;;;;;;;;12.00;11.80;;;;;39.42;81.64;99092.81;6294253;27;96419;-67
2023/08/15 10:31:59;;;;;;;;;11.75;11.75;;;;;39.45;85.74;99089.16;6293205;27;96642;-66
2023/08/15 10:35:05;;;;;;;;;14.40;14.40;;;;;39.67;85.28;99079.38;6274442;27;96904;-66
2023/08/15 10:38:16;;;;;;;;;10.20;9.60;;;;;39.75;83.19;99082.97;6270514;27;96628;-65
2023/08/15 10:41:21;;;;;;;;;11.00;10.00;;;;;39.97;83.23;99083.66;6295513;27;96402;-66
2023/08/15 10:44:24;;;;;;;;;13.00;13.00;;;;;40.14;81.35;99086.34;6294673;27;97662;-66
2023/08/15 10:47:42;;;;;;;;;12.00;12.00;;;;;40.00;81.27;99085.66;6293686;27;96903;-66
2023/08/15 10:50:47;;;;;;;;;12.00;11.60;;;;;39.96;81.63;99080.03;6275767;27;96811;-66
2023/08/15 10:53:54;;;;;;;;;11.00;11.00;;;;;39.81;79.56;99084.97;6293282;27;96190;-66
2023/08/15 10:56:59;;;;;;;;;8.60;8.60;;;;;39.52;81.93;99065.75;6293863;27;96682;-66
2023/08/15 11:00:04;;;;;;;;;11.75;11.00;;;;;39.40;82.15;99081.13;6292646;27;96351;-66
2023/08/15 11:03:08;;;;;;;;;12.00;12.00;;;;;39.35;83.76;99082.34;6277666;27;97670;-66
2023/08/15 11:06:13;;;;;;;;;12.00;11.00;;;;;39.14;77.10;99079.59;6277214;27;97246;-66
2023/08/15 11:09:17;;;;;;;;;10.75;9.75;;;;;38.89;75.13;99085.31;6261961;27;96840;-66
2023/08/15 11:12:22;;;;;;;;;9.60;8.60;;;;;38.84;76.59;99085.69;6273365;27;96971;-66
2023/08/15 11:15:27;;;;;;;;;10.33;10.00;;;;;38.72;74.85;99090.94;6281988;27;96432;-66
2023/08/15 11:18:31;;;;;;;;;9.40;9.00;;;;;38.54;74.65;99086.16;6279157;27;96828;-66
2023/08/15 11:21:35;;;;;;;;;11.50;11.00;;;;;38.72;75.00;99086.13;6288373;27;96307;-66
2023/08/15 11:24:39;;;;;;;;;8.40;8.40;;;;;38.96;74.52;99085.28;6282811;27;96944;-66
2023/08/15 11:27:45;;;;;;;;;10.00;9.00;;;;;39.37;74.73;99088.41;6263167;27;96795;-66
2023/08/15 11:30:48;;;;;;;;;8.20;8.20;;;;;39.50;72.00;99080.25;6289520;27;96356;-66
2023/08/15 11:33:52;;;;;;;;;8.00;7.20;;;;;39.21;66.01;99081.56;6290141;27;96402;-66
2023/08/15 11:36:55;;;;;;;;;8.00;8.00;;;;;38.88;65.78;99082.91;6278566;27;96910;-66
2023/08/15 11:40:00;;;;;;;;;10.00;10.00;;;;;38.95;67.36;99080.84;6298426;27;96906;-66
2023/08/15 11:43:03;;;;;;;;;9.00;8.25;;;;;38.88;64.58;99080.06;6282727;27;96351;-66
2023/08/15 11:46:07;;;;;;;;;8.00;7.40;;;;;38.96;65.04;99065.53;6265808;27;98608;-66
2023/08/15 11:49:16;;;;;;;;;10.60;9.00;;;;;38.92;63.74;99064.75;6274933;27;98588;-66
2023/08/15 11:52:19;;;;;;;;;8.00;8.00;;;;;39.21;68.97;99064.66;6297680;27;96522;-66
2023/08/15 11:55:25;;;;;;;;;8.50;7.75;;;;;39.31;63.46;99067.44;6291371;27;96320;-66
2023/08/15 11:58:30;;;;;;;;;10.00;9.00;;;;;39.20;60.84;99066.66;6278909;27;98544;-66
2023/08/15 12:01:43;;;;;;;;;8.00;7.00;;;;;39.33;61.75;99061.41;6292702;27;96246;-66
2023/08/15 12:04:48;;;;;;;;;9.00;9.00;;;;;39.14;64.96;99050.59;6294543;27;96385;-66
2023/08/15 12:07:51;;;;;;;;;8.00;8.00;;;;;38.97;63.39;99046.63;6285211;27;96381;-66
2023/08/15 12:10:56;;;;;;;;;7.00;7.00;;;;;38.65;63.15;99045.88;6267525;27;97392;-66
2023/08/15 12:14:00;;;;;;;;;8.60;7.60;;;;;38.78;62.97;99045.03;6278090;27;96544;-67
2023/08/15 12:17:03;;;;;;;;;6.40;6.00;;;;;39.00;49.56;99045.78;6275524;27;96293;-66
2023/08/15 12:20:09;;;;;;;;;6.00;6.00;;;;;39.15;42.46;99038.09;6275914;27;98608;-66
2023/08/15 12:23:13;;;;;;;;;7.00;7.00;;;;;39.18;47.06;99038.09;6275317;27;98613;-66
2023/08/15 12:26:30;;;;;;;;;8.00;8.00;;;;;39.46;53.52;99037.16;6295284;27;96319;-67
2023/08/15 12:29:33;;;;;;;;;8.50;8.00;;;;;39.85;55.38;99034.13;6293939;27;96418;-66
2023/08/15 12:32:56;;;;;;;;;10.00;10.00;;;;;39.99;50.67;99039.66;6277934;27;96644;-67
2023/08/15 12:35:59;;;;;;;;;5.60;5.60;;;;;39.91;48.45;99038.13;6280596;27;97014;-66
2023/08/15 12:39:03;;;;;;;;;8.00;8.00;;;;;39.62;52.75;99034.66;6269845;27;96363;-66
2023/08/15 12:42:07;;;;;;;;;7.00;6.20;;;;;39.60;59.64;99033.44;6292118;27;96563;-66
2023/08/15 12:45:10;;;;;;;;;8.00;8.00;;;;;39.90;54.83;99027.22;6276094;27;96383;-66
2023/08/15 12:48:14;;;;;;;;;8.80;8.80;;;;;40.12;53.36;99035.13;6293204;27;96666;-67
2023/08/15 12:51:17;;;;;;;;;9.60;8.60;;;;;39.92;58.16;99022.78;6295414;27;96339;-66
2023/08/15 12:54:20;;;;;;;;;9.00;8.00;;;;;39.93;56.43;99034.88;6294406;27;96358;-66
2023/08/15 12:57:25;;;;;;;;;8.00;8.00;;;;;39.99;60.44;99027.56;6288587;27;96489;-66
2023/08/15 13:00:28;;;;;;;;;8.00;8.00;;;;;39.98;64.07;99026.75;6294379;27;96375;-66
2023/08/15 13:03:31;;;;;;;;;7.00;7.00;;;;;40.10;61.58;99023.44;6270191;27;98554;-66
2023/08/15 13:06:34;;;;;;;;;7.40;7.40;;;;;40.31;62.01;99024.50;6264303;27;98386;-66
2023/08/15 13:09:37;;;;;;;;;8.00;8.00;;;;;40.45;59.47;99032.84;6252089;27;97940;-66
2023/08/15 13:12:42;;;;;;;;;7.00;7.00;;;;;40.50;57.73;99027.56;6293911;27;96806;-66
2023/08/15 13:15:45;;;;;;;;;7.60;7.40;;;;;40.42;59.41;99019.56;6296901;27;96433;-66
2023/08/15 13:18:48;;;;;;;;;9.00;8.20;;;;;40.03;59.07;99020.66;6275445;27;97235;-66
2023/08/15 13:21:52;;;;;;;;;8.00;8.00;;;;;39.77;63.05;99007.19;6291666;27;96347;-66
2023/08/15 13:24:55;;;;;;;;;10.00;9.00;;;;;39.14;66.78;99019.59;6295894;27;96335;-66
2023/08/15 13:28:00;;;;;;;;;7.50;7.50;;;;;38.85;68.65;99014.03;6292910;27;96320;-66
2023/08/15 13:31:03;;;;;;;;;7.75;7.00;;;;;38.94;68.54;99008.78;6288363;27;96981;-67
2023/08/15 13:34:06;;;;;;;;;10.00;9.00;;;;;39.12;69.12;99005.88;6277372;27;98905;-66
2023/08/15 13:37:09;;;;;;;;;8.00;8.00;;;;;39.21;67.35;99006.22;6276976;27;96604;-66
2023/08/15 13:40:13;;;;;;;;;8.40;7.40;;;;;39.36;68.01;99007.81;6262576;27;98664;-66
2023/08/15 13:43:19;;;;;;;;;7.00;7.00;;;;;39.36;69.41;99002.16;6294533;27;97859;-66
2023/08/15 13:46:22;;;;;;;;;7.00;7.00;;;;;39.26;70.02;98999.38;6286728;27;97223;-66
2023/08/15 13:49:25;;;;;;;;;9.00;9.00;;;;;39.29;69.74;98988.06;6277768;27;97549;-67
2023/08/15 13:52:29;;;;;;;;;7.50;6.50;;;;;39.17;69.74;98977.25;6296325;27;96354;-66
2023/08/15 13:55:32;;;;;;;;;8.00;7.00;;;;;38.87;70.31;98994.66;6279435;27;98662;-66
2023/08/15 13:58:37;;;;;;;;;10.00;8.00;;;;;38.83;71.31;98991.06;6281375;27;96564;-66
2023/08/15 14:01:41;;;;;;;;;8.00;8.00;;;;;38.74;70.53;98992.72;6282245;27;96350;-66
2023/08/15 14:04:44;;;;;;;;;8.00;8.00;;;;;38.79;69.19;98981.81;6279436;27;96941;-66
2023/08/15 14:07:47;;;;;;;;;7.00;7.00;;;;;39.07;75.84;98977.31;6278882;27;96813;-66